sensor_id;sensor_type;location;lat;lon;timestamp;pressure;altitude;pressure_sealevel;temperature;humidity
40908;BME280;51055;59.436;24.778;2022-10-12T00:01:06;101454.31;;;7.40;98.07
40908;BME280;51055;59.436;24.778;2022-10-12T00:03:34;101456.97;;;7.40;98.25
40908;BME280;51055;59.436;24.778;2022-10-12T00:06:14;101460.72;;;7.36;98.05
40908;BME280;51055;59.436;24.778;2022-10-12T00:08:42;101463.44;;;7.34;98.29
40908;BME280;51055;59.436;24.778;2022-10-12T00:11:13;101459.94;;;7.33;98.37
40908;BME280;51055;59.436;24.778;2022-10-12T00:13:42;101475.09;;;7.30;98.56
40908;BME280;51055;59.436;24.778;2022-10-12T00:16:11;101469.13;;;7.26;98.63
40908;BME280;51055;59.436;24.778;2022-10-12T00:18:40;101478.84;;;7.26;99.10
40908;BME280;51055;59.436;24.778;2022-10-12T00:21:15;101479.69;;;7.26;99.01
40908;BME280;51055;59.436;24.778;2022-10-12T00:23:43;101485.81;;;7.27;98.85
40908;BME280;51055;59.436;24.778;2022-10-12T00:26:14;101487.53;;;7.28;99.10
40908;BME280;51055;59.436;24.778;2022-10-12T00:28:42;101486.84;;;7.24;98.92
40908;BME280;51055;59.436;24.778;2022-10-12T00:31:18;101493.03;;;7.23;99.08
40908;BME280;51055;59.436;24.778;2022-10-12T00:33:47;101491.34;;;7.22;99.39
40908;BME280;51055;59.436;24.778;2022-10-12T00:36:26;101488.78;;;7.21;99.19
40908;BME280;51055;59.436;24.778;2022-10-12T00:38:55;101499.44;;;7.19;99.11
40908;BME280;51055;59.436;24.778;2022-10-12T00:41:36;101499.50;;;7.18;99.48
40908;BME280;51055;59.436;24.778;2022-10-12T00:44:34;101508.28;;;7.18;99.68
40908;BME280;51055;59.436;24.778;2022-10-12T00:47:20;101502.91;;;7.20;99.94
40908;BME280;51055;59.436;24.778;2022-10-12T00:49:54;101502.91;;;7.20;99.74
40908;BME280;51055;59.436;24.778;2022-10-12T00:52:28;101510.81;;;7.20;99.65
40908;BME280;51055;59.436;24.778;2022-10-12T00:54:59;101501.13;;;7.20;99.89
40908;BME280;51055;59.436;24.778;2022-10-12T00:57:27;101508.34;;;7.17;99.88
40908;BME280;51055;59.436;24.778;2022-10-12T01:00:00;101512.78;;;7.16;99.98
40908;BME280;51055;59.436;24.778;2022-10-12T01:02:30;101507.75;;;7.12;100.00
40908;BME280;51055;59.436;24.778;2022-10-12T01:05:00;101516.34;;;7.15;100.00
40908;BME280;51055;59.436;24.778;2022-10-12T01:07:29;101513.78;;;7.14;100.00
40908;BME280;51055;59.436;24.778;2022-10-12T01:09:56;101516.69;;;7.09;100.00
40908;BME280;51055;59.436;24.778;2022-10-12T01:12:25;101525.50;;;7.08;100.00
40908;BME280;51055;59.436;24.778;2022-10-12T01:14:53;101526.38;;;7.09;100.00
40908;BME280;51055;59.436;24.778;2022-10-12T01:20:38;101527.28;;;7.08;100.00
40908;BME280;51055;59.436;24.778;2022-10-12T01:26:15;101532.72;;;7.05;100.00
40908;BME280;51055;59.436;24.778;2022-10-12T01:34:40;101532.84;;;7.03;100.00
40908;BME280;51055;59.436;24.778;2022-10-12T01:39:52;101530.31;;;7.00;100.00
40908;BME280;51055;59.436;24.778;2022-10-12T01:42:26;101531.19;;;7.01;100.00
40908;BME280;51055;59.436;24.778;2022-10-12T01:47:34;101546.16;;;7.00;100.00
40908;BME280;51055;59.436;24.778;2022-10-12T01:50:05;101547.00;;;7.01;100.00
40908;BME280;51055;59.436;24.778;2022-10-12T01:55:56;101551.41;;;7.00;100.00
40908;BME280;51055;59.436;24.778;2022-10-12T02:01:31;101560.88;;;7.04;100.00
40908;BME280;51055;59.436;24.778;2022-10-12T02:06:43;101560.13;;;7.02;100.00
40908;BME280;51055;59.436;24.778;2022-10-12T02:09:32;101564.47;;;7.03;100.00
40908;BME280;51055;59.436;24.778;2022-10-12T02:12:07;101560.19;;;7.01;100.00
40908;BME280;51055;59.436;24.778;2022-10-12T02:14:42;101561.00;;;7.03;100.00
40908;BME280;51055;59.436;24.778;2022-10-12T02:17:14;101566.25;;;7.03;100.00
40908;BME280;51055;59.436;24.778;2022-10-12T02:19:49;101571.53;;;7.03;100.00
40908;BME280;51055;59.436;24.778;2022-10-12T02:22:19;101571.53;;;7.03;100.00
40908;BME280;51055;59.436;24.778;2022-10-12T02:24:48;101563.63;;;7.03;100.00
40908;BME280;51055;59.436;24.778;2022-10-12T02:27:18;101565.31;;;7.04;100.00
40908;BME280;51055;59.436;24.778;2022-10-12T02:29:48;101568.97;;;7.01;100.00
40908;BME280;51055;59.436;24.778;2022-10-12T02:32:20;101578.59;;;7.02;100.00
40908;BME280;51055;59.436;24.778;2022-10-12T02:34:54;101577.91;;;6.99;100.00
40908;BME280;51055;59.436;24.778;2022-10-12T02:37:42;101576.97;;;7.00;100.00
40908;BME280;51055;59.436;24.778;2022-10-12T02:40:24;101584.09;;;6.98;100.00
40908;BME280;51055;59.436;24.778;2022-10-12T02:42:56;101576.97;;;7.00;100.00
40908;BME280;51055;59.436;24.778;2022-10-12T02:45:43;101580.59;;;6.97;100.00
40908;BME280;51055;59.436;24.778;2022-10-12T02:48:17;101580.69;;;6.96;100.00
40908;BME280;51055;59.436;24.778;2022-10-12T02:50:48;101583.47;;;6.93;100.00
40908;BME280;51055;59.436;24.778;2022-10-12T02:53:16;101580.59;;;6.97;100.00
40908;BME280;51055;59.436;24.778;2022-10-12T02:55:52;101587.44;;;7.01;100.00
40908;BME280;51055;59.436;24.778;2022-10-12T02:58:20;101586.41;;;7.04;100.00
40908;BME280;51055;59.436;24.778;2022-10-12T03:00:48;101584.72;;;7.03;100.00
40908;BME280;51055;59.436;24.778;2022-10-12T03:03:16;101598.78;;;7.03;100.00
40908;BME280;51055;59.436;24.778;2022-10-12T03:05:44;101582.09;;;7.03;100.00
40908;BME280;51055;59.436;24.778;2022-10-12T03:08:12;101590.75;;;7.05;100.00
40908;BME280;51055;59.436;24.778;2022-10-12T03:10:39;101588.06;;;7.06;100.00
40908;BME280;51055;59.436;24.778;2022-10-12T03:13:07;101590.69;;;7.06;100.00
40908;BME280;51055;59.436;24.778;2022-10-12T03:15:35;101589.75;;;7.07;100.00
40908;BME280;51055;59.436;24.778;2022-10-12T03:18:02;101600.41;;;7.06;100.00
40908;BME280;51055;59.436;24.778;2022-10-12T03:20:30;101599.59;;;7.04;100.00
40908;BME280;51055;59.436;24.778;2022-10-12T03:22:58;101605.88;;;7.01;100.00
40908;BME280;51055;59.436;24.778;2022-10-12T03:25:26;101594.47;;;7.01;100.00
40908;BME280;51055;59.436;24.778;2022-10-12T03:27:53;101602.50;;;6.99;100.00
40908;BME280;51055;59.436;24.778;2022-10-12T03:30:21;101599.75;;;7.01;100.00
40908;BME280;51055;59.436;24.778;2022-10-12T03:32:49;101608.69;;;6.98;100.00
40908;BME280;51055;59.436;24.778;2022-10-12T03:35:16;101612.19;;;6.99;100.00
40908;BME280;51055;59.436;24.778;2022-10-12T03:37:44;101598.13;;;6.98;100.00
40908;BME280;51055;59.436;24.778;2022-10-12T03:40:12;101602.56;;;6.98;100.00
40908;BME280;51055;59.436;24.778;2022-10-12T03:42:39;101606.03;;;6.98;100.00
40908;BME280;51055;59.436;24.778;2022-10-12T03:45:07;101608.69;;;6.98;100.00
40908;BME280;51055;59.436;24.778;2022-10-12T03:47:36;101612.34;;;6.96;100.00
40908;BME280;51055;59.436;24.778;2022-10-12T03:50:04;101602.88;;;6.92;100.00
40908;BME280;51055;59.436;24.778;2022-10-12T03:52:32;101609.69;;;6.96;100.00
40908;BME280;51055;59.436;24.778;2022-10-12T03:55:00;101611.41;;;6.97;100.00
40908;BME280;51055;59.436;24.778;2022-10-12T03:57:28;101606.19;;;6.95;100.00
40908;BME280;51055;59.436;24.778;2022-10-12T03:59:57;101611.53;;;6.94;100.00
40908;BME280;51055;59.436;24.778;2022-10-12T04:02:24;101616.22;;;6.89;100.00
40908;BME280;51055;59.436;24.778;2022-10-12T04:04:52;101617.06;;;6.89;100.00
40908;BME280;51055;59.436;24.778;2022-10-12T04:07:20;101618.94;;;6.87;100.00
40908;BME280;51055;59.436;24.778;2022-10-12T04:09:50;101634.59;;;6.90;100.00
40908;BME280;51055;59.436;24.778;2022-10-12T04:12:17;101629.34;;;6.90;100.00
40908;BME280;51055;59.436;24.778;2022-10-12T04:14:45;101631.97;;;6.90;100.00
40908;BME280;51055;59.436;24.778;2022-10-12T04:17:14;101623.25;;;6.88;100.00
40908;BME280;51055;59.436;24.778;2022-10-12T04:19:42;101628.63;;;6.87;100.00
40908;BME280;51055;59.436;24.778;2022-10-12T04:22:10;101640.88;;;6.88;100.00
40908;BME280;51055;59.436;24.778;2022-10-12T04:24:38;101643.50;;;6.88;100.00
40908;BME280;51055;59.436;24.778;2022-10-12T04:27:05;101639.19;;;6.87;100.00
40908;BME280;51055;59.436;24.778;2022-10-12T04:29:33;101639.38;;;6.82;100.00
40908;BME280;51055;59.436;24.778;2022-10-12T04:32:01;101654.13;;;6.86;100.00
40908;BME280;51055;59.436;24.778;2022-10-12T04:34:29;101655.84;;;6.87;100.00
40908;BME280;51055;59.436;24.778;2022-10-12T04:36:58;101662.81;;;6.88;100.00
40908;BME280;51055;59.436;24.778;2022-10-12T04:39:25;101657.47;;;6.90;100.00
40908;BME280;51055;59.436;24.778;2022-10-12T04:41:53;101660.97;;;6.90;100.00
40908;BME280;51055;59.436;24.778;2022-10-12T04:44:21;101671.59;;;6.89;100.00
40908;BME280;51055;59.436;24.778;2022-10-12T04:46:48;101669.09;;;6.86;100.00
40908;BME280;51055;59.436;24.778;2022-10-12T04:49:16;101667.47;;;6.83;100.00
40908;BME280;51055;59.436;24.778;2022-10-12T04:51:43;101666.63;;;6.82;100.00
40908;BME280;51055;59.436;24.778;2022-10-12T04:54:11;101667.47;;;6.83;100.00
40908;BME280;51055;59.436;24.778;2022-10-12T04:56:39;101670.03;;;6.85;100.00
40908;BME280;51055;59.436;24.778;2022-10-12T04:59:14;101669.97;;;6.86;100.00
40908;BME280;51055;59.436;24.778;2022-10-12T05:01:41;101675.22;;;6.86;100.00
40908;BME280;51055;59.436;24.778;2022-10-12T05:04:09;101677.06;;;6.84;100.00
40908;BME280;51055;59.436;24.778;2022-10-12T05:06:37;101677.16;;;6.82;100.00
40908;BME280;51055;59.436;24.778;2022-10-12T05:09:05;101680.66;;;6.83;100.00
40908;BME280;51055;59.436;24.778;2022-10-12T05:11:32;101686.72;;;6.85;100.00
40908;BME280;51055;59.436;24.778;2022-10-12T05:14:00;101688.47;;;6.85;100.00
40908;BME280;51055;59.436;24.778;2022-10-12T05:16:27;101684.94;;;6.86;100.00
40908;BME280;51055;59.436;24.778;2022-10-12T05:18:55;101686.72;;;6.85;100.00
40908;BME280;51055;59.436;24.778;2022-10-12T05:21:22;101687.50;;;6.87;100.00
40908;BME280;51055;59.436;24.778;2022-10-12T05:23:51;101698.81;;;6.89;100.00
40908;BME280;51055;59.436;24.778;2022-10-12T05:26:19;101693.94;;;6.99;100.00
40908;BME280;51055;59.436;24.778;2022-10-12T05:28:47;101695.97;;;7.11;100.00
40908;BME280;51055;59.436;24.778;2022-10-12T05:31:14;101707.31;;;7.13;100.00
40908;BME280;51055;59.436;24.778;2022-10-12T05:33:42;101704.75;;;7.11;100.00
40908;BME280;51055;59.436;24.778;2022-10-12T05:36:09;101710.22;;;7.07;100.00
40908;BME280;51055;59.436;24.778;2022-10-12T05:38:37;101710.22;;;7.07;100.00
40908;BME280;51055;59.436;24.778;2022-10-12T05:41:05;101708.53;;;7.06;100.00
40908;BME280;51055;59.436;24.778;2022-10-12T05:43:32;101703.47;;;7.01;100.00
40908;BME280;51055;59.436;24.778;2022-10-12T05:46:00;101712.25;;;7.02;100.00
40908;BME280;51055;59.436;24.778;2022-10-12T05:48:27;101715.81;;;7.01;100.00
40908;BME280;51055;59.436;24.778;2022-10-12T05:50:56;101717.69;;;6.99;100.00
40908;BME280;51055;59.436;24.778;2022-10-12T05:53:23;101722.75;;;7.03;100.00
40908;BME280;51055;59.436;24.778;2022-10-12T05:55:53;101726.22;;;7.04;100.00
40908;BME280;51055;59.436;24.778;2022-10-12T05:58:22;101723.50;;;7.05;100.00
40908;BME280;51055;59.436;24.778;2022-10-12T06:00:50;101724.28;;;7.07;100.00
40908;BME280;51055;59.436;24.778;2022-10-12T06:03:18;101729.41;;;7.10;100.00
40908;BME280;51055;59.436;24.778;2022-10-12T06:05:51;101728.13;;;7.19;100.00
40908;BME280;51055;59.436;24.778;2022-10-12T06:08:19;101734.25;;;7.37;100.00
40908;BME280;51055;59.436;24.778;2022-10-12T06:10:49;101729.84;;;7.54;100.00
40908;BME280;51055;59.436;24.778;2022-10-12T06:13:17;101725.97;;;7.78;100.00
40908;BME280;51055;59.436;24.778;2022-10-12T06:15:46;101721.56;;;7.95;100.00
40908;BME280;51055;59.436;24.778;2022-10-12T06:18:14;101733.63;;;7.83;100.00
40908;BME280;51055;59.436;24.778;2022-10-12T06:20:54;101730.09;;;8.00;100.00
40908;BME280;51055;59.436;24.778;2022-10-12T06:23:42;101735.94;;;8.22;100.00
40908;BME280;51055;59.436;24.778;2022-10-12T06:26:09;101740.63;;;8.34;100.00
40908;BME280;51055;59.436;24.778;2022-10-12T06:28:37;101726.97;;;8.42;100.00
40908;BME280;51055;59.436;24.778;2022-10-12T06:31:05;101741.16;;;8.56;100.00
40908;BME280;51055;59.436;24.778;2022-10-12T06:33:32;101735.69;;;8.59;100.00
40908;BME280;51055;59.436;24.778;2022-10-12T06:36:00;101738.75;;;8.67;100.00
40908;BME280;51055;59.436;24.778;2022-10-12T06:38:27;101744.06;;;8.67;100.00
40908;BME280;51055;59.436;24.778;2022-10-12T06:40:55;101745.00;;;8.66;99.45
40908;BME280;51055;59.436;24.778;2022-10-12T06:43:22;101747.66;;;8.66;99.52
40908;BME280;51055;59.436;24.778;2022-10-12T06:45:50;101744.41;;;8.77;99.14
40908;BME280;51055;59.436;24.778;2022-10-12T06:48:18;101748.66;;;8.95;98.27
40908;BME280;51055;59.436;24.778;2022-10-12T06:50:45;101741.41;;;9.14;97.00
40908;BME280;51055;59.436;24.778;2022-10-12T06:53:13;101751.25;;;9.42;95.78
40908;BME280;51055;59.436;24.778;2022-10-12T06:55:40;101751.28;;;9.56;94.64
40908;BME280;51055;59.436;24.778;2022-10-12T06:58:08;101762.19;;;9.66;93.06
40908;BME280;51055;59.436;24.778;2022-10-12T07:00:36;101764.88;;;9.80;92.07
40908;BME280;51055;59.436;24.778;2022-10-12T07:03:04;101765.22;;;10.04;90.03
40908;BME280;51055;59.436;24.778;2022-10-12T07:05:31;101763.91;;;10.25;89.40
40908;BME280;51055;59.436;24.778;2022-10-12T07:07:59;101763.72;;;10.42;88.03
40908;BME280;51055;59.436;24.778;2022-10-12T07:10:27;101765.41;;;10.57;86.03
40908;BME280;51055;59.436;24.778;2022-10-12T07:12:54;101767.22;;;10.71;85.36
40908;BME280;51055;59.436;24.778;2022-10-12T07:15:22;101769.72;;;10.86;83.12
40908;BME280;51055;59.436;24.778;2022-10-12T07:17:50;101774.53;;;11.08;81.79
40908;BME280;51055;59.436;24.778;2022-10-12T07:20:17;101781.34;;;11.12;80.38
40908;BME280;51055;59.436;24.778;2022-10-12T07:22:45;101772.00;;;11.46;79.85
40908;BME280;51055;59.436;24.778;2022-10-12T07:25:13;101777.97;;;11.76;77.63
40908;BME280;51055;59.436;24.778;2022-10-12T07:27:41;101772.13;;;11.84;74.67
40908;BME280;51055;59.436;24.778;2022-10-12T07:30:09;101784.59;;;12.34;75.37
40908;BME280;51055;59.436;24.778;2022-10-12T07:32:37;101778.59;;;12.68;72.55
40908;BME280;51055;59.436;24.778;2022-10-12T07:35:05;101786.31;;;12.10;71.83
40908;BME280;51055;59.436;24.778;2022-10-12T07:37:32;101781.41;;;12.29;72.60
40908;BME280;51055;59.436;24.778;2022-10-12T07:40:00;101781.69;;;12.62;70.84
40908;BME280;51055;59.436;24.778;2022-10-12T07:42:28;101783.66;;;12.84;70.05
40908;BME280;51055;59.436;24.778;2022-10-12T07:44:55;101787.53;;;13.03;69.65
40908;BME280;51055;59.436;24.778;2022-10-12T07:47:23;101782.44;;;13.13;68.68
40908;BME280;51055;59.436;24.778;2022-10-12T07:49:51;101794.66;;;13.16;68.71
40908;BME280;51055;59.436;24.778;2022-10-12T07:52:18;101796.50;;;13.39;67.34
40908;BME280;51055;59.436;24.778;2022-10-12T07:54:46;101795.94;;;13.46;67.05
40908;BME280;51055;59.436;24.778;2022-10-12T07:57:13;101788.09;;;13.56;66.98
40908;BME280;51055;59.436;24.778;2022-10-12T07:59:41;101789.97;;;13.78;66.17
40908;BME280;51055;59.436;24.778;2022-10-12T08:02:11;101798.41;;;13.95;64.33
40908;BME280;51055;59.436;24.778;2022-10-12T08:04:39;101800.78;;;13.76;62.12
40908;BME280;51055;59.436;24.778;2022-10-12T08:07:07;101805.91;;;12.95;63.37
40908;BME280;51055;59.436;24.778;2022-10-12T08:09:35;101816.84;;;12.04;67.33
40908;BME280;51055;59.436;24.778;2022-10-12T08:12:02;101821.03;;;11.55;70.09
40908;BME280;51055;59.436;24.778;2022-10-12T08:14:30;101821.06;;;11.14;72.09
40908;BME280;51055;59.436;24.778;2022-10-12T08:16:57;101820.88;;;11.17;72.83
40908;BME280;51055;59.436;24.778;2022-10-12T08:19:25;101818.16;;;10.90;73.71
40908;BME280;51055;59.436;24.778;2022-10-12T08:21:52;101821.94;;;11.41;74.11
40908;BME280;51055;59.436;24.778;2022-10-12T08:24:20;101825.38;;;11.56;73.07
40908;BME280;51055;59.436;24.778;2022-10-12T08:26:48;101816.75;;;11.52;72.23
40908;BME280;51055;59.436;24.778;2022-10-12T08:29:15;101821.09;;;11.40;73.04
40908;BME280;51055;59.436;24.778;2022-10-12T08:31:43;101813.66;;;11.45;73.20
40908;BME280;51055;59.436;24.778;2022-10-12T08:34:10;101825.47;;;11.41;72.89
40908;BME280;51055;59.436;24.778;2022-10-12T08:36:38;101821.56;;;11.33;72.35
40908;BME280;51055;59.436;24.778;2022-10-12T08:39:05;101817.53;;;11.27;72.26
40908;BME280;51055;59.436;24.778;2022-10-12T08:46:58;101829.72;;;11.03;72.49
40908;BME280;51055;59.436;24.778;2022-10-12T08:49:29;101826.72;;;10.95;73.53
40908;BME280;51055;59.436;24.778;2022-10-12T08:52:00;101820.28;;;10.85;73.88
40908;BME280;51055;59.436;24.778;2022-10-12T08:54:42;101826.81;;;10.79;74.78
40908;BME280;51055;59.436;24.778;2022-10-12T08:57:18;101836.13;;;10.72;74.75
40908;BME280;51055;59.436;24.778;2022-10-12T08:59:46;101835.84;;;10.63;75.01
40908;BME280;51055;59.436;24.778;2022-10-12T09:02:49;101832.72;;;10.56;75.80
40908;BME280;51055;59.436;24.778;2022-10-12T09:05:32;101840.88;;;10.53;76.73
40908;BME280;51055;59.436;24.778;2022-10-12T09:08:29;101835.56;;;10.53;77.14
40908;BME280;51055;59.436;24.778;2022-10-12T09:11:14;101841.06;;;10.50;77.36
40908;BME280;51055;59.436;24.778;2022-10-12T09:13:56;101842.06;;;10.48;77.37
40908;BME280;51055;59.436;24.778;2022-10-12T09:16:31;101848.22;;;10.48;77.62
40908;BME280;51055;59.436;24.778;2022-10-12T09:19:07;101841.13;;;10.49;77.51
40908;BME280;51055;59.436;24.778;2022-10-12T09:21:38;101856.84;;;10.52;77.63
40908;BME280;51055;59.436;24.778;2022-10-12T09:24:14;101846.16;;;10.53;78.26
40908;BME280;51055;59.436;24.778;2022-10-12T09:26:45;101852.22;;;10.55;78.79
40908;BME280;51055;59.436;24.778;2022-10-12T09:32:14;101862.63;;;10.58;78.43
40908;BME280;51055;59.436;24.778;2022-10-12T09:34:47;101861.03;;;10.56;78.61
40908;BME280;51055;59.436;24.778;2022-10-12T09:37:20;101859.06;;;10.59;79.09
40908;BME280;51055;59.436;24.778;2022-10-12T09:39:49;101866.50;;;10.67;79.39
40908;BME280;51055;59.436;24.778;2022-10-12T09:42:17;101865.78;;;10.65;78.97
40908;BME280;51055;59.436;24.778;2022-10-12T09:44:50;101868.81;;;10.59;79.53
40908;BME280;51055;59.436;24.778;2022-10-12T09:47:32;101868.22;;;10.54;79.11
40908;BME280;51055;59.436;24.778;2022-10-12T09:50:02;101879.88;;;10.51;78.49
40908;BME280;51055;59.436;24.778;2022-10-12T09:57:40;101876.16;;;10.54;77.65
40908;BME280;51055;59.436;24.778;2022-10-12T10:00:37;101880.72;;;10.52;77.10
40908;BME280;51055;59.436;24.778;2022-10-12T10:03:04;101879.13;;;10.49;76.14
40908;BME280;51055;59.436;24.778;2022-10-12T10:06:01;101880.06;;;10.48;73.69
40908;BME280;51055;59.436;24.778;2022-10-12T10:08:41;101870.78;;;10.55;73.46
40908;BME280;51055;59.436;24.778;2022-10-12T10:11:15;101882.16;;;10.57;73.72
40908;BME280;51055;59.436;24.778;2022-10-12T10:13:47;101879.50;;;10.57;73.57
40908;BME280;51055;59.436;24.778;2022-10-12T10:16:16;101882.25;;;10.56;72.99
40908;BME280;51055;59.436;24.778;2022-10-12T10:21:28;101886.53;;;10.58;73.75
40908;BME280;51055;59.436;24.778;2022-10-12T10:24:05;101883.13;;;10.56;74.36
40908;BME280;51055;59.436;24.778;2022-10-12T10:26:55;101898.72;;;10.61;74.65
40908;BME280;51055;59.436;24.778;2022-10-12T10:29:36;101886.31;;;10.61;74.13
40908;BME280;51055;59.436;24.778;2022-10-12T10:32:09;101895.22;;;10.60;72.92
40908;BME280;51055;59.436;24.778;2022-10-12T10:34:41;101896.47;;;10.55;72.90
40908;BME280;51055;59.436;24.778;2022-10-12T10:37:17;101890.22;;;10.56;73.58
40908;BME280;51055;59.436;24.778;2022-10-12T10:39:49;101892.88;;;10.56;73.38
40908;BME280;51055;59.436;24.778;2022-10-12T10:42:30;101892.88;;;10.56;73.50
40908;BME280;51055;59.436;24.778;2022-10-12T10:45:02;101898.38;;;10.53;71.97
40908;BME280;51055;59.436;24.778;2022-10-12T10:47:31;101901.03;;;10.53;71.82
40908;BME280;51055;59.436;24.778;2022-10-12T10:50:02;101893.91;;;10.53;72.25
40908;BME280;51055;59.436;24.778;2022-10-12T10:52:33;101900.25;;;10.51;71.74
40908;BME280;51055;59.436;24.778;2022-10-12T10:57:49;101900.53;;;10.46;71.13
40908;BME280;51055;59.436;24.778;2022-10-12T11:00:21;101902.31;;;10.45;70.44
40908;BME280;51055;59.436;24.778;2022-10-12T11:03:13;101905.91;;;10.44;70.72
40908;BME280;51055;59.436;24.778;2022-10-12T11:05:45;101900.63;;;10.44;70.84
40908;BME280;51055;59.436;24.778;2022-10-12T11:08:24;101897.97;;;10.44;70.96
40908;BME280;51055;59.436;24.778;2022-10-12T11:10:57;101896.91;;;10.47;70.63
40908;BME280;51055;59.436;24.778;2022-10-12T11:14:14;101897.09;;;10.44;69.35
40908;BME280;51055;59.436;24.778;2022-10-12T11:16:51;101904.31;;;10.42;69.42
40908;BME280;51055;59.436;24.778;2022-10-12T11:19:46;101901.41;;;10.47;69.19
40908;BME280;51055;59.436;24.778;2022-10-12T11:22:24;101905.66;;;10.49;69.79
40908;BME280;51055;59.436;24.778;2022-10-12T11:27:34;101911.53;;;10.54;70.49
40908;BME280;51055;59.436;24.778;2022-10-12T11:30:11;101912.50;;;10.53;70.71
40908;BME280;51055;59.436;24.778;2022-10-12T11:33:08;101904.72;;;10.50;71.18
40908;BME280;51055;59.436;24.778;2022-10-12T11:35:44;101906.69;;;10.47;71.08
40908;BME280;51055;59.436;24.778;2022-10-12T11:38:20;101914.34;;;10.51;71.56
40908;BME280;51055;59.436;24.778;2022-10-12T11:40:58;101913.50;;;10.51;71.61
40908;BME280;51055;59.436;24.778;2022-10-12T11:44:29;101915.47;;;10.47;70.74
40908;BME280;51055;59.436;24.778;2022-10-12T11:47:05;101915.41;;;10.49;70.45
40908;BME280;51055;59.436;24.778;2022-10-12T11:49:49;101923.44;;;10.47;70.11
40908;BME280;51055;59.436;24.778;2022-10-12T11:52:21;101918.31;;;10.44;69.29
40908;BME280;51055;59.436;24.778;2022-10-12T11:55:20;101913.69;;;10.48;68.96
40908;BME280;51055;59.436;24.778;2022-10-12T11:57:50;101914.47;;;10.50;69.30
40908;BME280;51055;59.436;24.778;2022-10-12T12:00:22;101914.47;;;10.50;68.61
40908;BME280;51055;59.436;24.778;2022-10-12T12:03:13;101914.66;;;10.47;68.27
40908;BME280;51055;59.436;24.778;2022-10-12T12:05:42;101919.00;;;10.48;68.35
40908;BME280;51055;59.436;24.778;2022-10-12T12:08:20;101913.59;;;10.49;68.74
40908;BME280;51055;59.436;24.778;2022-10-12T12:11:02;101919.09;;;10.46;68.70
40908;BME280;51055;59.436;24.778;2022-10-12T12:13:30;101920.03;;;10.45;68.66
40908;BME280;51055;59.436;24.778;2022-10-12T12:18:30;101919.84;;;10.48;70.00
40908;BME280;51055;59.436;24.778;2022-10-12T12:23:37;101926.88;;;10.49;70.67
40908;BME280;51055;59.436;24.778;2022-10-12T12:28:48;101922.63;;;10.47;70.47
40908;BME280;51055;59.436;24.778;2022-10-12T12:31:25;101927.72;;;10.50;70.99
40908;BME280;51055;59.436;24.778;2022-10-12T12:34:12;101922.63;;;10.47;70.37
40908;BME280;51055;59.436;24.778;2022-10-12T12:36:42;101928.94;;;10.44;70.78
40908;BME280;51055;59.436;24.778;2022-10-12T12:39:32;101932.44;;;10.44;71.03
40908;BME280;51055;59.436;24.778;2022-10-12T12:42:00;101925.34;;;10.45;71.07
40908;BME280;51055;59.436;24.778;2022-10-12T12:44:41;101932.19;;;10.49;71.49
40908;BME280;51055;59.436;24.778;2022-10-12T12:50:47;101936.81;;;10.45;71.54
40908;BME280;51055;59.436;24.778;2022-10-12T12:52:50;101946.31;;;10.50;71.56
40908;BME280;51055;59.436;24.778;2022-10-12T13:01:37;101941.84;;;10.50;70.77
40908;BME280;51055;59.436;24.778;2022-10-12T13:12:23;101944.59;;;10.49;70.23
40908;BME280;51055;59.436;24.778;2022-10-12T13:15:14;101946.50;;;10.47;70.32
40908;BME280;51055;59.436;24.778;2022-10-12T13:21:14;101952.97;;;10.41;70.64
40908;BME280;51055;59.436;24.778;2022-10-12T13:23:46;101947.88;;;10.38;70.84
40908;BME280;51055;59.436;24.778;2022-10-12T13:26:21;101948.72;;;10.38;71.06
40908;BME280;51055;59.436;24.778;2022-10-12T13:28:52;101951.66;;;10.34;71.44
40908;BME280;51055;59.436;24.778;2022-10-12T13:31:35;101952.59;;;10.33;71.80
40908;BME280;51055;59.436;24.778;2022-10-12T13:34:23;101953.53;;;10.32;72.16
40908;BME280;51055;59.436;24.778;2022-10-12T13:36:58;101957.13;;;10.31;72.14
40908;BME280;51055;59.436;24.778;2022-10-12T13:39:28;101957.13;;;10.31;72.66
40908;BME280;51055;59.436;24.778;2022-10-12T13:41:59;101959.97;;;10.28;73.04
40908;BME280;51055;59.436;24.778;2022-10-12T13:44:29;101958.34;;;10.25;73.38
40908;BME280;51055;59.436;24.778;2022-10-12T13:46:58;101957.47;;;10.25;72.91
40908;BME280;51055;59.436;24.778;2022-10-12T13:49:40;101956.81;;;10.21;72.99
40908;BME280;51055;59.436;24.778;2022-10-12T13:54:40;101958.88;;;10.16;73.34
40908;BME280;51055;59.436;24.778;2022-10-12T14:00:15;101974.53;;;10.21;72.68
40908;BME280;51055;59.436;24.778;2022-10-12T14:03:01;101972.81;;;10.20;71.90
40908;BME280;51055;59.436;24.778;2022-10-12T14:05:31;101970.94;;;10.22;71.30
40908;BME280;51055;59.436;24.778;2022-10-12T14:08:06;101979.06;;;10.19;71.14
40908;BME280;51055;59.436;24.778;2022-10-12T14:10:37;101980.97;;;10.17;71.02
40908;BME280;51055;59.436;24.778;2022-10-12T14:13:14;101973.19;;;10.14;71.10
40908;BME280;51055;59.436;24.778;2022-10-12T14:15:47;101979.38;;;10.13;71.16
40908;BME280;51055;59.436;24.778;2022-10-12T14:18:37;101982.22;;;10.10;71.56
40908;BME280;51055;59.436;24.778;2022-10-12T14:21:13;101982.09;;;10.11;71.92
40908;BME280;51055;59.436;24.778;2022-10-12T14:23:45;101982.09;;;10.11;71.46
40908;BME280;51055;59.436;24.778;2022-10-12T14:26:40;101985.78;;;10.09;71.36
40908;BME280;51055;59.436;24.778;2022-10-12T14:32:05;101983.44;;;10.04;71.53